Terminal Aerodrome Forecast
Issued by NWS

Home | Current Version | Previous Version | Text Only | Print | Product List | Glossary On
Versions: 1 2 3 4 5 6 7 8 9 10 11 12
000
FTUS43 KDDC 301121
TAFGCK
TAF
KGCK 301121Z 3012/3112 34010KT P6SM SKC
     FM301600 35015G22KT P6SM SKC
     FM310000 03009KT P6SM SKC=

USA.gov is the U.S. government's official web portal to all federal, state and local government web resources and services.